Alviso, California
Current Conditions -  °F | °C
As of 7:56 AM on Friday 19 Dec 2014 (Local Time) from KNUQ Reporting Station
Scattered Clouds Scattered Clouds  
Wind Chill: 55°   Ceiling: Unl
Heat Index: 55°   Visibility: 10mi
Dew Point: 49°   Wind: 9mph
Humidity: 80%   Direction: 130°SE
Pressure: 30.15"   Gusts: NA
Location:  37.43°N, 121.97°W
Report Text: KNUQ 191556Z 13008KT 10SM SCT048 13/09 A3015 RMK AO2 SLP211 T01280094
Loading
Personal Weather Stations






























Interactive Weather Map New forecast layout! Learn more

10-Day Weather Forecast

Advertisements
Track Severe Weather on mobile